Conejos, Valles Caldera, New Mexico Weather observations

Data are for 10 minute period ending at time listed.
 Day   Time   Solar   Ave.   Ave.  Ave.  Vector  Max.   Baro.   Total    
  of    of     Rad.   Air    Rel.  Wind   Wind   Wind  Press.  Precip.   
Year   Day            Temp.  Hum.  Speed  Dir.   Gust                    
2017   (MST)  Kw/m2    F      %     mph   deg.    mph    mb.     in.     
-------------------------------------------------------------------------
  87    0:00   0.00   33.2    80    0.0   172     1.2   99999.0    0.00 
  87    0:10   0.00   34.0    78    0.1   246     1.2   99999.0    0.00 
  87    0:20   0.00   33.7    78    0.0     0     0.0   99999.0    0.00 
  87    0:30   0.00   32.8    81    0.2   150     1.2   99999.0    0.00 
  87    0:40   0.00   32.6    82    0.2   251     1.2   99999.0    0.00 
  87    0:50   0.00   33.0    81    0.0     0     0.0   99999.0    0.00 
  87    1:00   0.00   33.3    81    0.0     0     0.0   99999.0    0.00 
  87    1:10   0.00   33.7    79    0.3    60     1.8   99999.0    0.00 
  87    1:20   0.00   34.2    77    0.1    21     1.2   99999.0    0.00 
  87    1:30   0.00   33.8    78    0.0     0     0.0   99999.0    0.00 
  87    1:40   0.00   32.9    79    0.0     0     0.0   99999.0    0.00 
  87    1:50   0.00   32.2    82    0.3    61     3.0   99999.0    0.00 
  87    2:00   0.00   31.4    83    0.2    35     1.2   99999.0    0.00 
  87    2:10   0.00   31.3    84    0.1   352     1.2   99999.0    0.00 
  87    2:20   0.00   31.5    84    0.1   225     1.2   99999.0    0.00 
  87    2:30   0.00   31.4    84    0.0     0     0.0   99999.0    0.00 
  87    2:40   0.00   30.9    85    0.1   296     1.2   99999.0    0.00 
  87    2:50   0.00   30.2    86    0.0   210     1.2   99999.0    0.00 
  87    3:00   0.00   29.5    88    0.9   199     1.8   99999.0    0.00 
  87    3:10   0.00   29.6    88    1.2   188     1.8   99999.0    0.00 
  87    3:20   0.00   30.0    86    0.2   205     1.2   99999.0    0.00 
  87    3:30   0.00   29.3    87    0.6   210     1.2   99999.0    0.00 
  87    3:40   0.00   28.9    89    0.0   219     1.2   99999.0    0.00 
  87    3:50   0.00   28.9    88    0.1   249     1.2   99999.0    0.00 
  87    4:00   0.00   28.8    89    0.5   240     1.8   99999.0    0.00 
  87    4:10   0.00   28.8    88    0.2   239     1.2   99999.0    0.00 
  87    4:20   0.00   28.7    88    0.1   241     1.2   99999.0    0.00 
  87    4:30   0.00   28.5    88    0.0   255     1.2   99999.0    0.00 
  87    4:40   0.00   29.0    88    0.1   249     1.2   99999.0    0.00 
  87    4:50   0.00   30.0    84    0.1   218     1.2   99999.0    0.00 
  87    5:00   0.00   31.1    82    0.0     0     0.0   99999.0    0.00 
  87    5:10   0.00   31.4    80    1.1   339     2.4   99999.0    0.00 
  87    5:20   0.00   31.3    80    1.2   326     3.0   99999.0    0.00 
  87    5:30   0.00   31.0    81    1.6   337     3.0   99999.0    0.00 
  87    5:40   0.00   30.8    81    1.8   340     2.4   99999.0    0.00 
  87    5:50   0.00   30.6    83    0.2   353     1.2   99999.0    0.00 
  87    6:00   0.00   30.9    84    0.0   319     1.2   99999.0    0.00 
  87    6:10   0.00   32.3    80    0.0     0     0.0   99999.0    0.00 
  87    6:20   0.00   32.6    79    0.1   157     1.8   99999.0    0.00 
  87    6:30   0.00   32.2    83    1.3   161     2.7   99999.0    0.00 
  87    6:40   0.01   32.0    87    1.3   139     4.8   99999.0    0.00 
  87    6:50   0.01   31.0    92    1.1   342     2.4   99999.0    0.00 
  87    7:00   0.02   30.7    94    0.5   349     2.4   99999.0    0.00 
  87    7:10   0.02   30.8    95    2.3   352     4.2   99999.0    0.00 
  87    7:20   0.02   31.0    95    0.8   331     3.0   99999.0    0.00 
  87    7:30   0.01   31.2    93    0.5   343     1.8   99999.0    0.00 
  87    7:40   0.02   31.2    93    0.2     8     2.7   99999.0    0.00 
  87    7:50   0.02   31.6    91    0.8   274     1.8   99999.0    0.00 
  87    8:00   0.02   31.9    90    1.2   186     2.4   99999.0    0.00 
  87    8:10   0.03   31.8    92    0.6   158     2.4   99999.0    0.00 
  87    8:20   0.04   32.2    90    1.8   167     4.2   99999.0    0.00 
  87    8:30   0.03   32.5    89    2.8   172     6.6   99999.0    0.00 
  87    8:40   0.02   31.7    92    2.1   179     4.8   99999.0    0.00 
  87    8:50   0.02   31.0    94    1.9   164     5.4   99999.0    0.00 
  87    9:00   0.02   30.5    95    1.9   175     6.0   99999.0    0.00 
  87    9:10   0.01   30.0    96    0.0     0     0.0   99999.0    0.00 
  87    9:20   0.01   29.7    96    0.0     0     0.0   99999.0    0.00 
  87    9:30   0.01   29.5    97    0.0     0     0.0   99999.0    0.00 
  87    9:40   0.01   29.8    97    0.0     0     0.0   99999.0    0.00 
  87    9:50   0.01   29.7    97    0.0     0     0.0   99999.0    0.00 
  87   10:00   0.02   29.8    97    0.0     0     0.0   99999.0    0.00 
  87   10:10   0.02   30.2    97    0.0     0     0.0   99999.0    0.00 
  87   10:20   0.02   29.7    96    0.0     0     0.0   99999.0    0.00 
  87   10:30   0.02   29.7    95    0.0     0     0.0   99999.0    0.00 
  87   10:40   0.02   29.8    94    0.0     0     0.0   99999.0    0.00 
  87   10:50   0.01   29.8    93    0.0     0     0.0   99999.0    0.00 
  87   11:00   0.01   29.4    94    0.0     0     0.0   99999.0    0.00 
  87   11:10   0.03   29.3    95    0.0     0     0.0   99999.0    0.00 
  87   11:20   0.05   30.1    96    0.0     8     1.2   99999.0    0.00 
  87   11:30   0.07   30.9    95    0.1   351     1.8   99999.0    0.00 
  87   11:40   0.09   31.6    92    0.1   354     1.2   99999.0    0.00 
  87   11:50   0.10   32.3    91    0.1   351     1.2   99999.0    0.00 
  87   12:00   0.09   33.2    89    0.3   349     1.2   99999.0    0.00 
  87   12:10   0.07   33.5    86    1.9    12     5.4   99999.0    0.00 
  87   12:20   0.11   33.1    84    0.2   229     1.2   99999.0    0.00 
  87   12:30   0.16   34.9    78    0.4   131     2.4   99999.0    0.00 
  87   12:40   0.69   39.0    69    1.1    62     3.0   99999.0    0.00 
  87   12:50   0.76   40.1    62    1.8   153     4.8   99999.0    0.00 
  87   13:00   0.73   38.3    69    2.6   142     4.8   99999.0    0.00 
  87   13:10   0.44   37.6    75    2.2   140     4.2   99999.0    0.00 
  87   13:20   0.35   37.5    77    3.1   138     6.6   99999.0    0.01 
  87   13:30   0.15   36.7    76    1.8   298     5.4   99999.0    0.00 
  87   13:40   0.41   37.1    77    1.7   310     4.8   99999.0    0.00 
  87   13:50   0.21   38.0    75    1.9   212     4.5   99999.0    0.00 
  87   14:00   0.17   38.0    74    2.9   172     6.6   99999.0    0.00 
  87   14:10   0.22   37.5    70    2.1   202     4.2   99999.0    0.00 
  87   14:20   0.23   38.3    67    1.7   249     5.4   99999.0    0.00 
  87   14:30   0.26   38.5    69    2.7   344     4.8   99999.0    0.00 
  87   14:40   0.21   37.7    71    2.6   278     5.4   99999.0    0.01 
  87   14:50   0.16   37.5    70    3.2   332     5.4   99999.0    0.00 
  87   15:00   0.12   37.3    70    1.3   321     4.2   99999.0    0.00 
  87   15:10   0.12   37.2    67    1.6   341     3.0   99999.0    0.00 
  87   15:20   0.10   37.1    67    2.5   344     6.0   99999.0    0.00 
  87   15:30   0.04   36.1    72    3.5   359     5.4   99999.0    0.00 
  87   15:40   0.03   35.0    78    2.2    26     7.2   99999.0    0.01 
  87   15:50   0.03   33.3    83    2.5    94     7.2   99999.0    0.00 
  87   16:00   0.04   32.8    83    2.0   102     5.4   99999.0    0.00 
  87   16:10   0.05   32.3    83    2.3   102     6.0   99999.0    0.00 
  87   16:20   0.10   32.4    82    3.4    38     7.8   99999.0    0.01 
  87   16:30   0.10   33.2    80    2.8     9     7.8   99999.0    0.00 
  87   16:40   0.10   34.2    74    3.8     4     9.0   99999.0    0.00 
  87   16:50   0.06   35.2    71    3.2   353     6.0   99999.0    0.00 
  87   17:00   0.05   34.7    70    2.6     1     4.8   99999.0    0.00 
  87   17:10   0.03   34.7    72    0.8   333     2.4   99999.0    0.00 
  87   17:20   0.03   34.6    76    1.8   169     3.0   99999.0    0.00 
  87   17:30   0.02   34.3    81    1.7   167     2.4   99999.0    0.00 
  87   17:40   0.02   33.8    82    1.8   154     3.6   99999.0    0.00 
  87   17:50   0.02   33.4    80    1.3   170     3.0   99999.0    0.00 
  87   18:00   0.03   33.6    81    0.5   163     1.8   99999.0    0.00 
  87   18:10   0.02   33.8    79    0.9   179     1.8   99999.0    0.00 
  87   18:20   0.01   33.8    77    0.8   193     1.8   99999.0    0.00 
  87   18:30   0.00   33.4    79    0.7   171     3.0   99999.0    0.00 
  87   18:40   0.00   32.5    83    0.4   224     2.4   99999.0    0.00 
  87   18:50   0.00   31.8    86    0.4   346     1.8   99999.0    0.00 
  87   19:00   0.00   31.2    87    0.5   153     2.4   99999.0    0.00 
  87   19:10   0.00   30.3    90    1.5   178     3.0   99999.0    0.00 
  87   19:20   0.00   29.8    90    0.5   174     1.8   99999.0    0.00 
  87   19:30   0.00   29.5    91    0.4   210     1.5   99999.0    0.00 
  87   19:40   0.00   29.2    92    0.2     0     1.8   99999.0    0.00 
  87   19:50   0.00   29.2    92    0.2   313     1.8   99999.0    0.00 
  87   20:00   0.00   28.9    92    0.0   255     1.2   99999.0    0.00 
  87   20:10   0.00   28.4    93    0.2   309     1.8   99999.0    0.00 
  87   20:20   0.00   28.7    93    2.1   323     5.4   99999.0    0.00 
  87   20:30   0.00   29.0    92    2.2   338     3.6   99999.0    0.00 
  87   20:40   0.00   29.7    90    2.1   321     4.2   99999.0    0.00 
  87   20:50   0.00   30.6    86    3.7   334     9.0   99999.0    0.01 
  87   21:00   0.00   31.1    85    3.6   345     6.0   99999.0    0.00 
  87   21:10   0.00   30.9    85    2.5    12     5.4   99999.0    0.00 
  87   21:20   0.00   30.7    85    3.2   348     4.8   99999.0    0.00 
  87   21:30   0.00   30.5    86    2.4    36     4.2   99999.0    0.00 
  87   21:40   0.00   30.2    87    2.9   187     8.4   99999.0    0.00 
  87   21:50   0.00   30.2    86    0.8   224     2.4   99999.0    0.00 
  87   22:00   0.00   29.3    88    0.2    51     1.2   99999.0    0.00 
  87   22:10   0.00   28.5    91    1.3    53     4.2   99999.0    0.00 
  87   22:20   0.00   29.1    90    1.1    19     4.2   99999.0    0.00 
  87   22:30   0.00   29.5    88    0.3   354     1.8   99999.0    0.00 
  87   22:40   0.00   29.2    89    0.0     0     0.0   99999.0    0.00 
  87   22:50   0.00   29.7    89    0.1   130     1.2   99999.0    0.00 
  87   23:00   0.00   29.4    90    1.4   186     2.4   99999.0    0.00 
  87   23:10   0.00   29.6    90    0.8   154     1.8   99999.0    0.00 
  87   23:20   0.00   29.4    92    0.1   159     1.2   99999.0    0.00 

Return to Conejos, Valles Caldera graphs page.


Western Regional Climate Center,wrcc@dri.edu